createdAt,value
2018-12-19T00:00:08.025Z,95767.42
2018-12-19T00:02:36.242Z,95734.19
2018-12-19T00:05:04.651Z,95745.88
2018-12-19T00:07:32.867Z,95739.92
2018-12-19T00:10:01.209Z,95732.10
2018-12-19T00:12:29.439Z,95731.41
2018-12-19T00:14:57.670Z,95738.33
2018-12-19T00:17:26.082Z,95735.50
2018-12-19T00:19:54.450Z,95737.37
2018-12-19T00:22:22.706Z,95732.23
2018-12-19T00:24:50.926Z,95727.06
2018-12-19T00:27:19.215Z,95722.63
2018-12-19T00:29:47.422Z,95723.86
2018-12-19T00:32:15.668Z,95719.02
2018-12-19T00:34:43.907Z,95716.59
2018-12-19T00:37:12.207Z,95711.59
2018-12-19T00:39:40.419Z,95707.51
2018-12-19T00:42:08.634Z,95695.42
2018-12-19T00:44:36.959Z,95696.44
2018-12-19T00:47:05.284Z,95696.91
2018-12-19T00:49:33.569Z,95692.95
2018-12-19T00:52:01.818Z,95696.63
2018-12-19T00:54:30.107Z,95696.73
2018-12-19T00:56:58.400Z,95695.37
2018-12-19T00:59:26.649Z,95694.63
2018-12-19T01:01:54.942Z,95704.23
2018-12-19T01:04:23.195Z,95707.28
2018-12-19T01:06:51.607Z,95706.26
2018-12-19T01:09:19.887Z,95702.26
2018-12-19T01:11:48.267Z,95710.80
2018-12-19T01:14:16.625Z,95713.17
2018-12-19T01:16:44.851Z,95708.61
2018-12-19T01:19:13.083Z,95712.36
2018-12-19T01:21:41.303Z,95716.44
2018-12-19T01:24:09.863Z,95720.45
2018-12-19T01:26:38.215Z,95716.92
2018-12-19T01:29:06.438Z,95711.84
2018-12-19T01:31:34.649Z,95710.20
2018-12-19T01:34:02.871Z,95705.34
2018-12-19T01:36:31.092Z,95709.66
2018-12-19T01:38:59.351Z,95705.22
2018-12-19T01:41:27.590Z,95708.91
2018-12-19T01:43:55.859Z,95705.98
2018-12-19T01:46:24.085Z,95702.86
2018-12-19T01:48:52.402Z,95703.79
2018-12-19T01:51:21.041Z,95701.48
2018-12-19T01:53:49.396Z,95703.59
2018-12-19T01:56:17.615Z,95709.37
2018-12-19T01:58:45.848Z,95707.53
2018-12-19T02:01:14.191Z,95703.22
2018-12-19T02:03:42.454Z,95697.55
2018-12-19T02:06:11.218Z,95698.34
2018-12-19T02:08:39.505Z,95689.83
2018-12-19T02:11:07.743Z,95692.03
2018-12-19T02:13:36.064Z,95699.02
2018-12-19T02:16:04.296Z,95693.14
2018-12-19T02:18:32.514Z,95700.53
2018-12-19T02:21:00.804Z,95704.41
2018-12-19T02:23:29.091Z,95701.23
2018-12-19T02:25:57.354Z,95699.98
2018-12-19T02:28:25.617Z,95697.30
2018-12-19T02:30:53.845Z,95693.69
2018-12-19T02:33:22.151Z,95700.13
2018-12-19T02:35:50.384Z,95700.42
2018-12-19T02:38:18.731Z,95694.05
2018-12-19T02:40:46.986Z,95693.48
2018-12-19T02:43:15.315Z,95697.36
2018-12-19T02:45:43.631Z,95713.27
2018-12-19T02:48:11.948Z,95720.88
2018-12-19T02:50:40.182Z,95723.03
2018-12-19T02:53:08.416Z,95725.85
2018-12-19T02:55:36.636Z,95727.86
2018-12-19T02:58:05.048Z,95715.08
2018-12-19T03:00:33.304Z,95726.41
2018-12-19T03:03:01.545Z,95723.23
2018-12-19T03:05:29.891Z,95728.58
2018-12-19T03:07:58.107Z,95731.54
2018-12-19T03:10:26.423Z,95734.47
2018-12-19T03:12:54.728Z,95732.46
2018-12-19T03:15:23.100Z,95732.09
2018-12-19T03:17:51.472Z,95732.59
2018-12-19T03:20:19.739Z,95732.09
2018-12-19T03:22:48.014Z,95737.55
2018-12-19T03:25:16.304Z,95739.48
2018-12-19T03:27:44.550Z,95734.23
2018-12-19T03:30:12.944Z,95738.80
2018-12-19T03:32:41.258Z,95733.67
2018-12-19T03:35:09.586Z,95737.16
2018-12-19T03:37:37.816Z,95741.56
2018-12-19T03:40:06.111Z,95749.74
2018-12-19T03:42:34.428Z,95750.50
2018-12-19T03:45:02.681Z,95734.03
2018-12-19T03:47:30.979Z,95736.43
2018-12-19T03:49:59.371Z,95720.45
2018-12-19T03:52:27.930Z,95726.52
2018-12-19T03:54:56.216Z,95718.64
2018-12-19T03:57:24.775Z,95717.89
2018-12-19T03:59:52.990Z,95715.75
2018-12-19T04:02:21.220Z,95717.81
2018-12-19T04:04:49.439Z,95712.84
2018-12-19T04:07:17.705Z,95717.94
2018-12-19T04:09:45.915Z,95714.44
2018-12-19T04:12:14.142Z,95719.36
2018-12-19T04:14:42.435Z,95719.33
2018-12-19T04:17:10.701Z,95722.66
2018-12-19T04:19:38.944Z,95735.14
2018-12-19T04:22:07.187Z,95741.72
2018-12-19T04:24:35.462Z,95745.57
2018-12-19T04:27:03.702Z,95745.67
2018-12-19T04:29:32.303Z,95732.98
2018-12-19T04:32:00.654Z,95736.17
2018-12-19T04:34:28.992Z,95733.34
2018-12-19T04:36:57.343Z,95727.10
2018-12-19T04:39:25.578Z,95716.45
2018-12-19T04:41:53.867Z,95714.38
2018-12-19T04:44:22.123Z,95709.81
2018-12-19T04:46:50.450Z,95721.84
2018-12-19T04:49:19.347Z,95712.38
2018-12-19T04:51:47.605Z,95715.06
2018-12-19T04:54:15.917Z,95709.31
2018-12-19T04:56:44.148Z,95712.08
2018-12-19T04:59:13.334Z,95718.25
2018-12-19T05:01:41.551Z,95715.26
2018-12-19T05:04:09.910Z,95720.81
2018-12-19T05:06:39.204Z,95720.64
2018-12-19T05:09:07.970Z,95719.70
2018-12-19T05:11:36.287Z,95717.70
2018-12-19T05:14:04.560Z,95718.58
2018-12-19T05:16:32.827Z,95724.69
2018-12-19T05:19:01.116Z,95725.22
2018-12-19T05:21:29.596Z,95720.33
2018-12-19T05:23:58.048Z,95720.52
2018-12-19T05:26:26.291Z,95716.10
2018-12-19T05:28:55.263Z,95724.52
2018-12-19T05:31:23.482Z,95724.27
2018-12-19T05:33:51.697Z,95720.10
2018-12-19T05:36:20.042Z,95723.36
2018-12-19T05:38:48.270Z,95730.26
2018-12-19T05:41:16.498Z,95732.75
2018-12-19T05:43:44.891Z,95728.67
2018-12-19T05:46:13.098Z,95718.73
2018-12-19T05:48:41.404Z,95723.86
2018-12-19T05:51:09.623Z,95716.64
2018-12-19T05:53:37.889Z,95718.42
2018-12-19T05:56:06.355Z,95718.42
2018-12-19T05:58:34.611Z,95727.11
2018-12-19T06:01:02.850Z,95728.34
2018-12-19T06:03:31.211Z,95730.94
2018-12-19T06:05:59.495Z,95727.27
2018-12-19T06:08:27.875Z,95728.30
2018-12-19T06:10:56.080Z,95728.64
2018-12-19T06:13:24.388Z,95727.69
2018-12-19T06:15:52.767Z,95729.12
2018-12-19T06:18:21.055Z,95728.58
2018-12-19T06:20:49.489Z,95731.70
2018-12-19T06:23:17.708Z,95738.26
2018-12-19T06:25:45.923Z,95734.55
2018-12-19T06:28:14.167Z,95738.26
2018-12-19T06:30:42.392Z,95733.20
2018-12-19T06:33:10.606Z,95739.70
2018-12-19T06:35:38.851Z,95736.00
2018-12-19T06:38:07.072Z,95742.28
2018-12-19T06:40:35.307Z,95735.38
2018-12-19T06:43:03.707Z,95726.81
2018-12-19T06:45:32.019Z,95731.26
2018-12-19T06:48:00.444Z,95730.02
2018-12-19T06:50:28.659Z,95731.53
2018-12-19T06:52:56.926Z,95735.06
2018-12-19T06:55:25.157Z,95738.39
2018-12-19T06:57:53.413Z,95742.70
2018-12-19T07:00:21.657Z,95750.28
2018-12-19T07:02:49.907Z,95747.87
2018-12-19T07:05:18.163Z,95741.62
2018-12-19T07:07:46.403Z,95744.12
2018-12-19T07:10:14.682Z,95741.91
2018-12-19T07:12:42.916Z,95743.77
2018-12-19T07:15:11.309Z,95737.69
2018-12-19T07:17:40.016Z,95747.27
2018-12-19T07:20:08.343Z,95745.53
2018-12-19T07:22:36.568Z,95749.41
2018-12-19T07:25:07.702Z,95753.20
2018-12-19T07:27:35.912Z,95751.19
2018-12-19T07:30:06.404Z,95752.05
2018-12-19T07:32:34.639Z,95758.97
2018-12-19T07:35:02.881Z,95753.74
2018-12-19T07:37:31.111Z,95754.07
2018-12-19T07:39:59.360Z,95752.55
2018-12-19T07:42:27.595Z,95756.00
2018-12-19T07:44:55.945Z,95766.29
2018-12-19T07:47:24.153Z,95769.63
2018-12-19T07:49:52.400Z,95764.16
2018-12-19T07:52:20.665Z,95770.86
2018-12-19T07:54:48.871Z,95778.06
2018-12-19T07:57:17.080Z,95776.91
2018-12-19T07:59:45.374Z,95780.39
2018-12-19T08:02:13.656Z,95782.16
2018-12-19T08:04:42.139Z,95774.54
2018-12-19T08:09:43.955Z,95777.82
2018-12-19T08:12:12.294Z,95777.03
2018-12-19T08:14:40.499Z,95782.16
2018-12-19T08:17:08.853Z,95780.75
2018-12-19T08:19:37.203Z,95777.12
2018-12-19T08:22:05.429Z,95774.22
2018-12-19T08:24:33.671Z,95767.03
2018-12-19T08:27:01.907Z,95775.12
2018-12-19T08:29:30.149Z,95781.85
2018-12-19T08:31:58.578Z,95784.20
2018-12-19T08:34:26.836Z,95781.47
2018-12-19T08:36:55.075Z,95779.66
2018-12-19T08:39:23.647Z,95783.90
2018-12-19T08:41:52.231Z,95790.13
2018-12-19T08:44:20.454Z,95790.42
2018-12-19T08:46:48.889Z,95789.95
2018-12-19T08:49:17.168Z,95793.60
2018-12-19T08:51:45.395Z,95796.96
2018-12-19T08:54:13.813Z,95789.87
2018-12-19T08:56:42.036Z,95792.52
2018-12-19T08:59:10.263Z,95787.94
2018-12-19T09:01:38.525Z,95784.09
2018-12-19T09:04:06.763Z,95792.20
2018-12-19T09:06:34.980Z,95786.05
2018-12-19T09:09:03.258Z,95787.53
2018-12-19T09:11:31.589Z,95781.55
2018-12-19T09:13:59.932Z,95789.08
2018-12-19T09:16:28.403Z,95791.63
2018-12-19T09:18:56.647Z,95788.59
2018-12-19T09:21:24.908Z,95790.30
2018-12-19T09:23:53.250Z,95785.03
2018-12-19T09:26:21.472Z,95777.52
2018-12-19T09:28:49.683Z,95779.55
2018-12-19T09:31:17.951Z,95778.56
2018-12-19T09:33:46.332Z,95774.67
2018-12-19T09:36:14.606Z,95781.39
2018-12-19T09:38:42.831Z,95785.96
2018-12-19T09:41:12.490Z,95787.17
2018-12-19T09:43:41.099Z,95779.78
2018-12-19T09:46:09.446Z,95776.33
2018-12-19T09:48:37.676Z,95775.83
2018-12-19T09:51:06.082Z,95780.29
2018-12-19T09:53:34.371Z,95787.17
2018-12-19T09:56:02.617Z,95794.09
2018-12-19T09:58:30.932Z,95802.63
2018-12-19T10:00:59.157Z,95796.41
2018-12-19T10:03:27.705Z,95784.52
2018-12-19T10:05:56.087Z,95778.86
2018-12-19T10:08:24.357Z,95777.32
2018-12-19T10:10:52.588Z,95774.06
2018-12-19T10:13:20.840Z,95775.77
2018-12-19T10:15:49.080Z,95775.48
2018-12-19T10:18:17.357Z,95774.66
2018-12-19T10:20:45.572Z,95768.86
2018-12-19T10:23:13.813Z,95758.45
2018-12-19T10:25:42.035Z,95753.66
2018-12-19T10:28:10.255Z,95742.37
2018-12-19T10:30:52.975Z,95747.53
2018-12-19T10:33:21.259Z,95746.19
2018-12-19T10:35:49.454Z,95741.34
2018-12-19T10:38:17.676Z,95735.91
2018-12-19T10:40:45.897Z,95733.19
2018-12-19T10:43:14.155Z,95733.58
2018-12-19T10:45:43.279Z,95733.81
2018-12-19T10:48:11.547Z,95742.16
2018-12-19T10:50:39.771Z,95744.59
2018-12-19T10:53:08.066Z,95743.36
2018-12-19T10:55:36.291Z,95749.44
2018-12-19T10:58:04.565Z,95735.76
2018-12-19T11:00:38.311Z,95730.16
2018-12-19T11:03:06.601Z,95729.95
2018-12-19T11:05:34.920Z,95722.61
2018-12-19T11:08:03.155Z,95713.55
2018-12-19T11:10:31.372Z,95716.08
2018-12-19T11:12:59.603Z,95724.37
2018-12-19T11:15:27.971Z,95716.02
2018-12-19T11:17:56.200Z,95711.94
2018-12-19T11:20:24.404Z,95701.28
2018-12-19T11:22:52.699Z,95708.38
2018-12-19T11:25:21.401Z,95708.22
2018-12-19T11:27:49.629Z,95706.95
2018-12-19T11:30:17.867Z,95696.09
2018-12-19T11:32:46.239Z,95699.12
2018-12-19T11:35:14.508Z,95694.23
2018-12-19T11:37:42.755Z,95682.33
2018-12-19T11:40:11.004Z,95676.36
2018-12-19T11:42:39.255Z,95666.88
2018-12-19T11:45:07.527Z,95663.59
2018-12-19T11:50:10.241Z,95657.58
2018-12-19T11:52:38.485Z,95658.41
2018-12-19T11:55:06.760Z,95663.84
2018-12-19T11:57:35.144Z,95655.22
2018-12-19T12:00:04.087Z,95650.34
2018-12-19T12:02:32.309Z,95646.92
2018-12-19T12:05:00.519Z,95649.72
2018-12-19T12:07:29.051Z,95650.03
2018-12-19T12:09:57.280Z,95649.90
2018-12-19T12:12:25.682Z,95642.19
2018-12-19T12:14:54.083Z,95638.67
2018-12-19T12:17:22.300Z,95631.11
2018-12-19T12:19:50.650Z,95628.86
2018-12-19T12:22:18.903Z,95628.08
2018-12-19T12:24:47.244Z,95624.05
2018-12-19T12:27:15.462Z,95623.78
2018-12-19T12:29:43.840Z,95620.39
2018-12-19T12:32:12.057Z,95616.31
2018-12-19T12:34:40.448Z,95622.05
2018-12-19T12:37:08.714Z,95626.45
2018-12-19T12:39:36.928Z,95634.67
2018-12-19T12:42:05.183Z,95640.76
2018-12-19T12:44:33.411Z,95642.81
2018-12-19T12:47:01.773Z,95641.66
2018-12-19T12:49:30.079Z,95632.54
2018-12-19T12:51:58.336Z,95632.64
2018-12-19T12:54:26.603Z,95633.77
2018-12-19T12:56:54.919Z,95627.52
2018-12-19T12:59:23.136Z,95628.73
2018-12-19T13:01:51.357Z,95625.66
2018-12-19T13:04:19.599Z,95621.97
2018-12-19T13:06:47.839Z,95613.52
2018-12-19T13:09:16.060Z,95614.61
2018-12-19T13:11:44.299Z,95610.64
2018-12-19T13:14:12.885Z,95610.50
2018-12-19T13:16:41.204Z,95610.36
2018-12-19T13:19:09.444Z,95609.83
2018-12-19T13:21:37.693Z,95603.43
2018-12-19T13:24:05.933Z,95608.50
2018-12-19T13:26:34.210Z,95606.44
2018-12-19T13:29:02.443Z,95602.78
2018-12-19T13:31:30.783Z,95605.80
2018-12-19T13:33:58.999Z,95603.27
2018-12-19T13:36:27.210Z,95608.28
2018-12-19T13:38:55.433Z,95604.90
2018-12-19T13:41:23.731Z,95596.95
2018-12-19T13:43:51.944Z,95594.87
2018-12-19T13:46:20.158Z,95592.38
2018-12-19T13:48:48.383Z,95590.03
2018-12-19T13:51:16.624Z,95588.63
2018-12-19T13:53:44.831Z,95583.84
2018-12-19T13:56:13.056Z,95587.38
2018-12-19T13:58:41.595Z,95586.34
2018-12-19T14:01:09.857Z,95578.26
2018-12-19T14:03:38.095Z,95579.44
2018-12-19T14:06:06.422Z,95583.20
2018-12-19T14:08:34.658Z,95580.01
2018-12-19T14:11:02.975Z,95574.13
2018-12-19T14:13:31.233Z,95566.09
2018-12-19T14:15:59.554Z,95570.30
2018-12-19T14:18:27.799Z,95564.69
2018-12-19T14:20:56.011Z,95569.45
2018-12-19T14:23:24.362Z,95564.47
2018-12-19T14:25:52.572Z,95570.50
2018-12-19T14:28:20.811Z,95571.00
2018-12-19T14:30:49.171Z,95561.97
2018-12-19T14:33:17.442Z,95563.14
2018-12-19T14:35:45.681Z,95552.47
2018-12-19T14:38:13.955Z,95553.06
2018-12-19T14:40:42.223Z,95546.30
2018-12-19T14:43:10.544Z,95541.30
2018-12-19T14:45:38.760Z,95541.16
2018-12-19T14:48:07.002Z,95537.04
2018-12-19T14:50:35.239Z,95538.81
2018-12-19T14:53:03.548Z,95533.22
2018-12-19T14:55:31.934Z,95527.41
2018-12-19T14:58:00.153Z,95526.02
2018-12-19T15:00:28.397Z,95523.59
2018-12-19T15:02:56.731Z,95527.20
2018-12-19T15:05:24.955Z,95539.34
2018-12-19T15:07:53.217Z,95558.69
2018-12-19T15:10:21.676Z,95566.27
2018-12-19T15:12:49.924Z,95562.44
2018-12-19T15:15:18.131Z,95573.53
2018-12-19T15:17:46.380Z,95569.11
2018-12-19T15:20:14.665Z,95564.29
2018-12-19T15:22:42.941Z,95566.20
2018-12-19T15:25:11.182Z,95556.19
2018-12-19T15:27:39.420Z,95558.83
2018-12-19T15:30:08.118Z,95561.05
2018-12-19T15:32:37.545Z,95549.73
2018-12-19T15:35:05.922Z,95551.84
2018-12-19T15:37:34.156Z,95541.77
2018-12-19T15:40:02.442Z,95536.03
2018-12-19T15:42:32.691Z,95527.48
2018-12-19T15:45:00.874Z,95525.42
2018-12-19T15:47:29.092Z,95528.81
2018-12-19T15:49:57.300Z,95523.17
2018-12-19T15:52:25.521Z,95521.26
2018-12-19T15:54:53.735Z,95515.57
2018-12-19T15:57:22.476Z,95511.24
2018-12-19T15:59:50.692Z,95503.67
2018-12-19T16:02:19.027Z,95498.66
2018-12-19T16:04:47.259Z,95488.36
2018-12-19T16:07:15.508Z,95471.63
2018-12-19T16:09:43.856Z,95466.32
2018-12-19T16:12:12.171Z,95476.32
2018-12-19T16:14:40.577Z,95480.95
2018-12-19T16:17:08.776Z,95487.63
2018-12-19T16:19:37.042Z,95485.48
2018-12-19T16:22:05.323Z,95486.08
2018-12-19T16:24:33.655Z,95475.73
2018-12-19T16:27:01.903Z,95460.73
2018-12-19T16:29:30.179Z,95464.12
2018-12-19T16:31:58.888Z,95475.88
2018-12-19T16:34:27.167Z,95477.70
2018-12-19T16:36:55.390Z,95479.23
2018-12-19T16:39:23.666Z,95482.44
2018-12-19T16:41:51.908Z,95487.88
2018-12-19T16:44:20.295Z,95492.72
2018-12-19T16:46:48.492Z,95489.65
2018-12-19T16:49:16.823Z,95489.48
2018-12-19T16:51:45.111Z,95488.58
2018-12-19T16:54:13.362Z,95491.22
2018-12-19T16:56:41.683Z,95491.91
2018-12-19T16:59:09.931Z,95501.47
2018-12-19T17:01:38.310Z,95504.00
2018-12-19T17:04:06.591Z,95503.21
2018-12-19T17:06:34.803Z,95502.22
2018-12-19T17:09:03.139Z,95507.23
2018-12-19T17:11:31.351Z,95502.36
2018-12-19T17:13:59.588Z,95501.66
2018-12-19T17:16:27.841Z,95498.88
2018-12-19T17:18:56.217Z,95501.47
2018-12-19T17:21:24.440Z,95495.89
2018-12-19T17:23:52.691Z,95491.11
2018-12-19T17:26:21.024Z,95489.28
2018-12-19T17:28:49.370Z,95483.91
2018-12-19T17:31:17.671Z,95482.44
2018-12-19T17:33:46.119Z,95482.84
2018-12-19T17:36:14.329Z,95476.95
2018-12-19T17:38:42.592Z,95472.09
2018-12-19T17:41:10.847Z,95469.52
2018-12-19T17:43:39.641Z,95472.70
2018-12-19T17:46:07.887Z,95475.57
2018-12-19T17:48:36.182Z,95476.22
2018-12-19T17:51:04.429Z,95474.08
2018-12-19T17:53:32.719Z,95458.63
2018-12-19T17:56:00.939Z,95460.85
2018-12-19T17:58:29.961Z,95456.89
2018-12-19T18:00:58.324Z,95454.95
2018-12-19T18:03:26.598Z,95458.58
2018-12-19T18:05:54.942Z,95449.32
2018-12-19T18:08:23.218Z,95436.95
2018-12-19T18:10:51.506Z,95425.28
2018-12-19T18:13:19.717Z,95417.18
2018-12-19T18:15:47.955Z,95411.59
2018-12-19T18:18:16.165Z,95401.97
2018-12-19T18:20:44.420Z,95397.86
2018-12-19T18:23:12.632Z,95393.36
2018-12-19T18:25:40.873Z,95402.62
2018-12-19T18:28:09.223Z,95400.28
2018-12-19T18:30:37.491Z,95399.84
2018-12-19T18:33:05.722Z,95397.33
2018-12-19T18:35:34.064Z,95396.09
2018-12-19T18:38:02.312Z,95393.45
2018-12-19T18:40:30.531Z,95396.30
2018-12-19T18:42:58.880Z,95410.18
2018-12-19T18:45:27.194Z,95411.84
2018-12-19T18:47:55.553Z,95422.55
2018-12-19T18:50:23.840Z,95419.73
2018-12-19T18:52:52.043Z,95409.33
2018-12-19T18:55:20.392Z,95417.91
2018-12-19T18:57:48.652Z,95419.91
2018-12-19T19:00:18.864Z,95419.77
2018-12-19T19:02:47.152Z,95420.78
2018-12-19T19:05:15.418Z,95434.09
2018-12-19T19:07:43.709Z,95445.26
2018-12-19T19:10:12.005Z,95445.13
2018-12-19T19:12:40.252Z,95437.82
2018-12-19T19:15:08.603Z,95429.89
2018-12-19T19:17:37.931Z,95434.19
2018-12-19T19:20:06.461Z,95428.39
2018-12-19T19:22:34.973Z,95436.47
2018-12-19T19:25:03.264Z,95427.21
2018-12-19T19:27:31.626Z,95432.50
2018-12-19T19:29:59.883Z,95432.50
2018-12-19T19:32:28.223Z,95422.10
2018-12-19T19:34:56.677Z,95426.23
2018-12-19T19:37:25.052Z,95436.50
2018-12-19T19:39:53.366Z,95437.41
2018-12-19T19:42:21.699Z,95445.48
2018-12-19T19:44:49.963Z,95448.94
2018-12-19T19:47:18.247Z,95443.70
2018-12-19T19:49:46.523Z,95451.63
2018-12-19T19:52:14.731Z,95449.08
2018-12-19T19:54:43.262Z,95457.69
2018-12-19T19:57:11.567Z,95465.65
2018-12-19T19:59:39.828Z,95470.94
2018-12-19T20:02:08.120Z,95468.52
2018-12-19T20:04:36.609Z,95450.94
2018-12-19T20:07:04.876Z,95471.13
2018-12-19T20:09:33.204Z,95470.34
2018-12-19T20:12:02.042Z,95474.68
2018-12-19T20:14:30.255Z,95472.54
2018-12-19T20:17:01.891Z,95475.05
2018-12-19T20:19:30.380Z,95479.29
2018-12-19T20:21:58.729Z,95473.91
2018-12-19T20:24:26.952Z,95471.72
2018-12-19T20:26:55.178Z,95479.84
2018-12-19T20:29:23.388Z,95479.84
2018-12-19T20:31:51.666Z,95484.89
2018-12-19T20:34:19.903Z,95483.80
2018-12-19T20:36:48.163Z,95478.73
2018-12-19T20:39:16.373Z,95479.97
2018-12-19T20:41:44.588Z,95483.84
2018-12-19T20:44:12.795Z,95487.95
2018-12-19T20:46:41.095Z,95495.84
2018-12-19T20:49:09.318Z,95486.72
2018-12-19T20:51:37.601Z,95496.56
2018-12-19T20:54:05.845Z,95495.02
2018-12-19T20:56:34.093Z,95500.17
2018-12-19T20:59:02.403Z,95500.95
2018-12-19T21:01:30.816Z,95495.33
2018-12-19T21:03:59.055Z,95506.83
2018-12-19T21:06:29.331Z,95503.40
2018-12-19T21:08:57.631Z,95501.89
2018-12-19T21:11:25.949Z,95497.75
2018-12-19T21:13:54.243Z,95501.86
2018-12-19T21:16:24.427Z,95488.73
2018-12-19T21:18:52.663Z,95504.41
2018-12-19T21:21:20.910Z,95507.05
2018-12-19T21:23:49.128Z,95498.62
2018-12-19T21:26:17.387Z,95500.67
2018-12-19T21:28:45.610Z,95502.77
2018-12-19T21:31:13.896Z,95506.05
2018-12-19T21:33:42.336Z,95504.64
2018-12-19T21:36:10.638Z,95503.69
2018-12-19T21:38:38.969Z,95497.98
2018-12-19T21:41:07.246Z,95507.66
2018-12-19T21:43:35.484Z,95512.48
2018-12-19T21:46:03.913Z,95511.57
2018-12-19T21:48:32.231Z,95518.72
2018-12-19T21:51:00.634Z,95517.22
2018-12-19T21:53:28.930Z,95527.70
2018-12-19T21:55:57.236Z,95523.05
2018-12-19T21:58:25.485Z,95528.64
2018-12-19T22:00:53.726Z,95529.30
2018-12-19T22:03:21.949Z,95527.37
2018-12-19T22:05:50.249Z,95521.69
2018-12-19T22:08:18.508Z,95519.86
2018-12-19T22:10:46.809Z,95529.11
2018-12-19T22:13:15.181Z,95532.92
2018-12-19T22:15:44.146Z,95531.06
2018-12-19T22:21:15.598Z,95523.36
2018-12-19T22:23:43.835Z,95522.62
2018-12-19T22:26:12.159Z,95518.38
2018-12-19T22:28:40.585Z,95517.94
2018-12-19T22:31:08.854Z,95515.05
2018-12-19T22:33:37.200Z,95511.81
2018-12-19T22:36:05.655Z,95503.45
2018-12-19T22:38:34.077Z,95504.22
2018-12-19T22:41:02.426Z,95499.84
2018-12-19T22:43:30.667Z,95496.86
2018-12-19T22:45:59.123Z,95499.91
2018-12-19T22:48:27.539Z,95497.77
2018-12-19T22:50:55.922Z,95503.33
2018-12-19T22:53:24.350Z,95503.74
2018-12-19T22:55:52.687Z,95503.46
2018-12-19T22:58:21.015Z,95502.02
2018-12-19T23:00:55.928Z,95507.30
2018-12-19T23:06:19.452Z,95507.91
2018-12-19T23:08:47.860Z,95513.20
2018-12-19T23:11:16.342Z,95513.05
2018-12-19T23:16:28.961Z,95508.58
2018-12-19T23:18:57.243Z,95513.92
2018-12-19T23:21:25.576Z,95511.87
2018-12-19T23:23:53.915Z,95509.21
2018-12-19T23:26:22.451Z,95511.28
2018-12-19T23:31:37.011Z,95508.23
2018-12-19T23:34:05.372Z,95509.37
2018-12-19T23:36:33.663Z,95512.36
2018-12-19T23:39:02.070Z,95505.94
2018-12-19T23:41:31.030Z,95501.44
2018-12-19T23:43:59.516Z,95504.58
2018-12-19T23:46:27.960Z,95507.88
2018-12-19T23:48:56.259Z,95517.66
2018-12-19T23:51:24.615Z,95518.67
2018-12-19T23:53:52.839Z,95524.45
2018-12-19T23:56:21.126Z,95517.84
2018-12-19T23:58:49.419Z,95517.16
